createdAt,value
2018-09-10T00:00:33.335Z,0
2018-09-10T00:01:35.803Z,0
2018-09-10T00:02:38.043Z,0
2018-09-10T00:03:40.149Z,0
2018-09-10T00:04:42.749Z,0
2018-09-10T00:05:45.307Z,0
2018-09-10T00:06:47.427Z,0
2018-09-10T00:07:50.826Z,0
2018-09-10T00:08:53.522Z,0
2018-09-10T00:09:55.798Z,0
2018-09-10T00:10:58.283Z,0
2018-09-10T00:12:00.962Z,0
2018-09-10T00:13:03.216Z,0
2018-09-10T00:14:05.412Z,0
2018-09-10T00:15:07.551Z,0
2018-09-10T00:16:09.722Z,0
2018-09-10T00:17:12.075Z,0
2018-09-10T00:18:14.221Z,0
2018-09-10T00:19:16.441Z,0
2018-09-10T00:20:18.637Z,0
2018-09-10T00:21:21.121Z,0
2018-09-10T00:22:23.285Z,0
2018-09-10T00:23:25.381Z,0
2018-09-10T00:24:27.478Z,0
2018-09-10T00:25:29.915Z,0
2018-09-10T00:26:32.053Z,0
2018-09-10T00:27:34.271Z,0
2018-09-10T00:28:36.499Z,0
2018-09-10T00:29:38.774Z,0
2018-09-10T00:30:40.952Z,0
2018-09-10T00:31:43.139Z,0
2018-09-10T00:32:45.626Z,0
2018-09-10T00:33:47.753Z,0
2018-09-10T00:34:50.267Z,0
2018-09-10T00:35:53.160Z,0
2018-09-10T00:36:55.301Z,0
2018-09-10T00:37:58.123Z,0
2018-09-10T00:39:00.241Z,0
2018-09-10T00:40:02.757Z,0
2018-09-10T00:41:04.919Z,0
2018-09-10T00:42:07.392Z,0
2018-09-10T00:43:09.545Z,0
2018-09-10T00:44:11.780Z,0
2018-09-10T00:45:13.973Z,0
2018-09-10T00:46:16.167Z,0
2018-09-10T00:47:18.373Z,0
2018-09-10T00:48:20.837Z,0
2018-09-10T00:49:23.319Z,0
2018-09-10T00:50:25.414Z,0
2018-09-10T00:51:27.626Z,0
2018-09-10T00:52:30.086Z,0
2018-09-10T00:53:32.315Z,0
2018-09-10T00:54:34.420Z,0
2018-09-10T00:55:36.886Z,0
2018-09-10T00:56:38.996Z,0
2018-09-10T00:57:41.159Z,0
2018-09-10T00:58:43.362Z,0
2018-09-10T00:59:45.491Z,0
2018-09-10T01:00:47.620Z,0
2018-09-10T01:01:50.152Z,0
2018-09-10T01:02:52.943Z,0
2018-09-10T01:03:55.198Z,0
2018-09-10T01:04:57.707Z,0
2018-09-10T01:05:59.917Z,0
2018-09-10T01:07:02.088Z,0
2018-09-10T01:08:04.227Z,0
2018-09-10T01:09:06.390Z,0
2018-09-10T01:10:08.535Z,0
2018-09-10T01:11:10.676Z,0
2018-09-10T01:12:12.836Z,0
2018-09-10T01:13:15.001Z,0
2018-09-10T01:14:17.220Z,0
2018-09-10T01:15:20.163Z,0
2018-09-10T01:16:22.558Z,0
2018-09-10T01:17:25.377Z,0
2018-09-10T01:18:27.843Z,0
2018-09-10T01:19:30.043Z,0
2018-09-10T01:20:32.659Z,0
2018-09-10T01:21:35.164Z,0
2018-09-10T01:22:37.379Z,0
2018-09-10T01:23:40.058Z,0
2018-09-10T01:24:42.740Z,0
2018-09-10T01:25:45.411Z,0
2018-09-10T01:26:47.830Z,0
2018-09-10T01:27:49.947Z,0
2018-09-10T01:28:53.128Z,0
2018-09-10T01:29:55.367Z,0
2018-09-10T01:30:57.587Z,0
2018-09-10T01:32:00.274Z,0
2018-09-10T01:33:02.895Z,0
2018-09-10T01:34:05.376Z,0
2018-09-10T01:35:08.536Z,0
2018-09-10T01:36:10.801Z,0
2018-09-10T01:37:12.839Z,0
2018-09-10T01:38:14.896Z,0
2018-09-10T01:39:17.264Z,0
2018-09-10T01:40:19.303Z,0
2018-09-10T01:41:21.478Z,0
2018-09-10T01:42:23.640Z,0
2018-09-10T01:43:25.771Z,0
2018-09-10T01:44:27.899Z,0
2018-09-10T01:45:30.005Z,0
2018-09-10T01:46:32.053Z,0
2018-09-10T01:47:34.598Z,0
2018-09-10T01:48:36.659Z,0
2018-09-10T01:49:38.675Z,0
2018-09-10T01:50:40.733Z,0
2018-09-10T01:51:43.061Z,0
2018-09-10T01:52:45.778Z,0
2018-09-10T01:53:47.825Z,0
2018-09-10T01:54:49.866Z,0
2018-09-10T01:55:51.908Z,0
2018-09-10T01:56:53.950Z,0
2018-09-10T01:57:56.004Z,0
2018-09-10T01:58:58.044Z,0
2018-09-10T02:00:00.097Z,0
2018-09-10T02:01:02.136Z,0
2018-09-10T02:02:04.177Z,0
2018-09-10T02:03:06.215Z,0
2018-09-10T02:04:08.258Z,0
2018-09-10T02:05:10.581Z,0
2018-09-10T02:06:12.623Z,0
2018-09-10T02:07:14.673Z,0
2018-09-10T02:08:16.711Z,0
2018-09-10T02:09:18.765Z,0
2018-09-10T02:10:21.195Z,0
2018-09-10T02:11:23.231Z,0
2018-09-10T02:12:25.561Z,0
2018-09-10T02:13:27.601Z,0
2018-09-10T02:14:29.657Z,0
2018-09-10T02:15:31.700Z,0
2018-09-10T02:16:33.742Z,0
2018-09-10T02:17:36.175Z,0
2018-09-10T02:18:38.493Z,0
2018-09-10T02:19:40.916Z,0
2018-09-10T02:20:42.958Z,0
2018-09-10T02:21:45.004Z,0
2018-09-10T02:22:47.426Z,0
2018-09-10T02:23:49.490Z,0
2018-09-10T02:24:51.524Z,0
2018-09-10T02:25:53.562Z,0
2018-09-10T02:26:55.614Z,0
2018-09-10T02:27:57.651Z,0
2018-09-10T02:28:59.984Z,0
2018-09-10T02:30:02.605Z,0
2018-09-10T02:31:05.336Z,0
2018-09-10T02:32:07.383Z,0
2018-09-10T02:33:09.716Z,0
2018-09-10T02:34:12.051Z,0
2018-09-10T02:35:14.084Z,0
2018-09-10T02:36:16.134Z,0
2018-09-10T02:37:18.172Z,0
2018-09-10T02:38:20.240Z,0
2018-09-10T02:39:22.542Z,0
2018-09-10T02:40:24.594Z,0
2018-09-10T02:41:26.936Z,0
2018-09-10T02:42:28.988Z,0
2018-09-10T02:43:31.036Z,0
2018-09-10T02:44:33.069Z,0
2018-09-10T02:45:35.121Z,0
2018-09-10T02:46:37.469Z,0
2018-09-10T02:47:39.499Z,0
2018-09-10T02:48:41.545Z,0
2018-09-10T02:49:43.587Z,0
2018-09-10T02:50:45.624Z,0
2018-09-10T02:51:47.986Z,0
2018-09-10T02:52:50.730Z,0
2018-09-10T02:53:52.776Z,0
2018-09-10T02:54:54.814Z,0
2018-09-10T02:55:56.869Z,0
2018-09-10T02:56:59.217Z,0
2018-09-10T02:58:01.548Z,0
2018-09-10T02:59:03.599Z,0
2018-09-10T03:00:05.631Z,0
2018-09-10T03:01:08.651Z,0
2018-09-10T03:02:10.695Z,0
2018-09-10T03:03:13.736Z,0
2018-09-10T03:04:15.771Z,0
2018-09-10T03:05:17.818Z,0
2018-09-10T03:06:19.860Z,0
2018-09-10T03:07:21.903Z,0
2018-09-10T03:08:24.392Z,0
2018-09-10T03:09:26.817Z,0
2018-09-10T03:10:29.252Z,0
2018-09-10T03:11:31.976Z,0
2018-09-10T03:12:34.018Z,0
2018-09-10T03:13:36.061Z,0
2018-09-10T03:14:38.103Z,0
2018-09-10T03:15:40.139Z,0
2018-09-10T03:16:42.182Z,0
2018-09-10T03:17:44.527Z,0
2018-09-10T03:18:46.569Z,0
2018-09-10T03:19:48.607Z,0
2018-09-10T03:20:50.666Z,0
2018-09-10T03:21:52.989Z,0
2018-09-10T03:22:55.030Z,0
2018-09-10T03:23:57.110Z,0
2018-09-10T03:24:59.449Z,0
2018-09-10T03:26:01.492Z,0
2018-09-10T03:27:03.537Z,0
2018-09-10T03:28:05.594Z,0
2018-09-10T03:29:07.630Z,0
2018-09-10T03:30:09.960Z,0
2018-09-10T03:31:12.018Z,0
2018-09-10T03:32:15.057Z,0
2018-09-10T03:33:17.383Z,0
2018-09-10T03:34:19.436Z,0
2018-09-10T03:35:21.480Z,0
2018-09-10T03:36:23.523Z,0
2018-09-10T03:37:25.554Z,0
2018-09-10T03:38:27.605Z,0
2018-09-10T03:39:29.648Z,0
2018-09-10T03:40:31.692Z,0
2018-09-10T03:41:34.132Z,0
2018-09-10T03:42:36.181Z,0
2018-09-10T03:43:38.211Z,0
2018-09-10T03:44:40.262Z,0
2018-09-10T03:45:42.587Z,0
2018-09-10T03:46:44.620Z,0
2018-09-10T03:47:46.955Z,0
2018-09-10T03:48:48.997Z,0
2018-09-10T03:49:51.046Z,0
2018-09-10T03:50:53.093Z,0
2018-09-10T03:51:55.520Z,0
2018-09-10T03:52:57.941Z,0
2018-09-10T03:53:59.996Z,0
2018-09-10T03:55:02.327Z,0
2018-09-10T03:56:04.657Z,0
2018-09-10T03:57:06.699Z,0
2018-09-10T03:58:08.731Z,0
2018-09-10T03:59:10.824Z,0
2018-09-10T04:00:13.167Z,0
2018-09-10T04:01:15.799Z,0
2018-09-10T04:02:18.424Z,0
2018-09-10T04:03:20.758Z,0
2018-09-10T04:04:22.801Z,0
2018-09-10T04:05:25.420Z,0
2018-09-10T04:06:27.463Z,0
2018-09-10T04:07:29.512Z,0
2018-09-10T04:08:31.554Z,0
2018-09-10T04:09:33.597Z,0
2018-09-10T04:10:35.625Z,0
2018-09-10T04:11:37.971Z,0
2018-09-10T04:12:40.010Z,0
2018-09-10T04:13:42.050Z,0
2018-09-10T04:14:44.108Z,0
2018-09-10T04:15:46.143Z,0
2018-09-10T04:16:48.187Z,0
2018-09-10T04:17:50.238Z,0
2018-09-10T04:18:52.280Z,0
2018-09-10T04:19:54.319Z,0
2018-09-10T04:20:56.751Z,0
2018-09-10T04:21:58.787Z,0
2018-09-10T04:23:01.133Z,0
2018-09-10T04:24:03.465Z,0
2018-09-10T04:25:06.079Z,0
2018-09-10T04:26:09.032Z,0
2018-09-10T04:27:10.948Z,0
2018-09-10T04:28:13.273Z,0
2018-09-10T04:29:15.311Z,0
2018-09-10T04:30:17.363Z,0
2018-09-10T04:31:19.392Z,0
2018-09-10T04:32:21.635Z,0
2018-09-10T04:33:23.683Z,0
2018-09-10T04:34:26.121Z,0
2018-09-10T04:35:28.736Z,1
2018-09-10T04:36:31.168Z,1
2018-09-10T04:37:33.217Z,1
2018-09-10T04:38:35.255Z,1
2018-09-10T04:39:37.313Z,1
2018-09-10T04:40:39.354Z,1
2018-09-10T04:41:41.399Z,1
2018-09-10T04:42:43.445Z,1
2018-09-10T04:43:45.801Z,1
2018-09-10T04:44:48.511Z,1
2018-09-10T04:45:50.560Z,1
2018-09-10T04:46:52.604Z,2
2018-09-10T04:47:54.659Z,2
2018-09-10T04:48:56.694Z,2
2018-09-10T04:49:58.736Z,2
2018-09-10T04:51:00.789Z,2
2018-09-10T04:52:02.830Z,3
2018-09-10T04:53:05.155Z,3
2018-09-10T04:54:07.195Z,3
2018-09-10T04:55:09.523Z,3
2018-09-10T04:56:11.574Z,3
2018-09-10T04:57:13.617Z,3
2018-09-10T04:58:15.714Z,4
2018-09-10T04:59:17.703Z,4
2018-09-10T05:00:21.497Z,4
2018-09-10T05:01:25.265Z,4
2018-09-10T05:02:28.695Z,4
2018-09-10T05:03:32.565Z,4
2018-09-10T05:04:36.152Z,4
2018-09-10T05:05:40.176Z,5
2018-09-10T05:06:43.715Z,5
2018-09-10T05:07:47.322Z,5
2018-09-10T05:08:52.001Z,5
2018-09-10T05:09:56.247Z,6
2018-09-10T05:11:00.063Z,6
2018-09-10T05:12:05.470Z,6
2018-09-10T05:13:08.974Z,6
2018-09-10T05:14:12.536Z,6
2018-09-10T05:15:16.192Z,7
2018-09-10T05:16:19.930Z,7
2018-09-10T05:17:23.863Z,7
2018-09-10T05:18:27.687Z,7
2018-09-10T05:19:31.641Z,8
2018-09-10T05:20:35.605Z,8
2018-09-10T05:21:39.649Z,8
2018-09-10T05:22:43.955Z,9
2018-09-10T05:23:48.559Z,9
2018-09-10T05:24:53.339Z,10
2018-09-10T05:25:58.688Z,10
2018-09-10T05:27:03.538Z,10
2018-09-10T05:28:08.207Z,10
2018-09-10T05:29:13.612Z,10
2018-09-10T05:30:17.137Z,11
2018-09-10T05:31:21.703Z,11
2018-09-10T05:32:25.748Z,11
2018-09-10T05:33:30.084Z,12
2018-09-10T05:34:33.843Z,13
2018-09-10T05:35:37.704Z,12
2018-09-10T05:36:41.668Z,12
2018-09-10T05:37:46.018Z,13
2018-09-10T05:38:51.198Z,13
2018-09-10T05:39:56.321Z,14
2018-09-10T05:41:00.775Z,15
2018-09-10T05:42:05.518Z,16
2018-09-10T05:43:09.430Z,17
2018-09-10T05:44:12.462Z,17
2018-09-10T05:45:14.583Z,17
2018-09-10T05:46:18.154Z,17
2018-09-10T05:47:21.732Z,16
2018-09-10T05:48:24.870Z,16
2018-09-10T05:49:28.283Z,15
2018-09-10T05:50:31.269Z,15
2018-09-10T05:51:34.019Z,16
2018-09-10T05:52:37.143Z,16
2018-09-10T05:53:40.562Z,17
2018-09-10T05:54:43.637Z,17
2018-09-10T05:55:46.165Z,18
2018-09-10T05:56:49.782Z,19
2018-09-10T05:57:53.528Z,19
2018-09-10T05:58:57.383Z,18
2018-09-10T06:00:01.222Z,18
2018-09-10T06:01:04.557Z,18
2018-09-10T06:02:07.467Z,19
2018-09-10T06:03:11.024Z,20
2018-09-10T06:04:13.324Z,21
2018-09-10T06:05:17.435Z,22
2018-09-10T06:06:21.189Z,23
2018-09-10T06:07:23.706Z,24
2018-09-10T06:08:26.270Z,26
2018-09-10T06:09:29.238Z,28
2018-09-10T06:10:32.329Z,29
2018-09-10T06:11:35.615Z,30
2018-09-10T06:12:39.586Z,30
2018-09-10T06:13:42.421Z,31
2018-09-10T06:14:45.013Z,31
2018-09-10T06:15:48.232Z,30
2018-09-10T06:16:51.629Z,29
2018-09-10T06:17:53.965Z,27
2018-09-10T06:18:57.791Z,26
2018-09-10T06:20:01.105Z,25
2018-09-10T06:21:03.994Z,25
2018-09-10T06:22:06.847Z,25
2018-09-10T06:23:09.731Z,24
2018-09-10T06:24:13.261Z,24
2018-09-10T06:25:17.104Z,24
2018-09-10T06:26:21.028Z,23
2018-09-10T06:27:23.131Z,23
2018-09-10T06:28:26.464Z,24
2018-09-10T06:29:30.388Z,25
2018-09-10T06:30:34.037Z,25
2018-09-10T06:31:37.644Z,25
2018-09-10T06:32:41.074Z,26
2018-09-10T06:33:44.978Z,27
2018-09-10T06:34:48.007Z,27
2018-09-10T06:35:51.464Z,29
2018-09-10T06:36:54.668Z,31
2018-09-10T06:37:58.117Z,34
2018-09-10T06:39:02.783Z,36
2018-09-10T06:40:07.809Z,37
2018-09-10T06:41:12.580Z,39
2018-09-10T06:42:17.656Z,40
2018-09-10T06:43:22.535Z,41
2018-09-10T06:44:26.317Z,41
2018-09-10T06:45:29.967Z,42
2018-09-10T06:46:33.491Z,43
2018-09-10T06:47:37.896Z,44
2018-09-10T06:48:41.220Z,44
2018-09-10T06:49:44.770Z,45
2018-09-10T06:50:48.263Z,46
2018-09-10T06:51:51.923Z,49
2018-09-10T06:52:55.764Z,50
2018-09-10T06:53:59.443Z,51
2018-09-10T06:55:03.290Z,52
2018-09-10T06:56:07.592Z,53
2018-09-10T06:57:11.542Z,53
2018-09-10T06:58:15.907Z,53
2018-09-10T06:59:19.491Z,53
2018-09-10T07:00:23.102Z,53
2018-09-10T07:01:27.020Z,53
2018-09-10T07:02:31.087Z,53
2018-09-10T07:03:34.929Z,53
2018-09-10T07:04:38.780Z,52
2018-09-10T07:05:42.713Z,52
2018-09-10T07:06:46.033Z,51
2018-09-10T07:07:50.482Z,50
2018-09-10T07:08:54.392Z,49
2018-09-10T07:09:58.148Z,47
2018-09-10T07:11:02.269Z,46
2018-09-10T07:12:06.195Z,45
2018-09-10T07:13:10.046Z,44
2018-09-10T07:14:13.580Z,44
2018-09-10T07:15:17.597Z,44
2018-09-10T07:16:21.697Z,43
2018-09-10T07:17:25.484Z,44
2018-09-10T07:18:29.615Z,44
2018-09-10T07:19:33.589Z,44
2018-09-10T07:20:37.589Z,45
2018-09-10T07:21:41.688Z,45
2018-09-10T07:22:45.910Z,46
2018-09-10T07:23:50.204Z,46
2018-09-10T07:24:55.024Z,46
2018-09-10T07:26:00.057Z,47
2018-09-10T07:27:04.904Z,47
2018-09-10T07:28:09.876Z,47
2018-09-10T07:29:15.350Z,47
2018-09-10T07:30:19.879Z,47
2018-09-10T07:31:23.538Z,47
2018-09-10T07:32:27.247Z,47
2018-09-10T07:33:31.131Z,48
2018-09-10T07:34:35.836Z,48
2018-09-10T07:35:39.155Z,47
2018-09-10T07:36:42.806Z,47
2018-09-10T07:37:46.326Z,47
2018-09-10T07:38:49.728Z,47
2018-09-10T07:39:53.359Z,48
2018-09-10T07:40:56.643Z,49
2018-09-10T07:41:59.728Z,50
2018-09-10T07:43:02.367Z,51
2018-09-10T07:44:05.537Z,51
2018-09-10T07:45:08.066Z,54
2018-09-10T07:46:10.460Z,53
2018-09-10T07:47:14.087Z,54
2018-09-10T07:48:16.779Z,56
2018-09-10T07:49:20.063Z,58
2018-09-10T07:50:24.594Z,60
2018-09-10T07:51:27.457Z,64
2018-09-10T07:52:31.942Z,67
2018-09-10T07:53:35.520Z,71
2018-09-10T07:54:39.204Z,77
2018-09-10T07:55:42.792Z,82
2018-09-10T07:56:46.022Z,99
2018-09-10T07:57:49.280Z,94
2018-09-10T07:58:52.236Z,91
2018-09-10T07:59:56.469Z,82
2018-09-10T08:00:59.651Z,75
2018-09-10T08:02:03.542Z,66
2018-09-10T08:03:05.953Z,62
2018-09-10T08:04:08.949Z,61
2018-09-10T08:05:12.135Z,52
2018-09-10T08:06:15.676Z,47
2018-09-10T08:07:19.358Z,43
2018-09-10T08:08:21.538Z,41
2018-09-10T08:09:26.370Z,41
2018-09-10T08:10:29.260Z,42
2018-09-10T08:11:32.515Z,43
2018-09-10T08:12:36.139Z,42
2018-09-10T08:13:40.135Z,44
2018-09-10T08:14:42.428Z,45
2018-09-10T08:15:46.055Z,46
2018-09-10T08:16:50.259Z,47
2018-09-10T08:17:54.226Z,49
2018-09-10T08:18:57.850Z,50
2018-09-10T08:20:01.495Z,51
2018-09-10T08:21:05.307Z,52
2018-09-10T08:22:08.645Z,52
2018-09-10T08:23:12.338Z,52
2018-09-10T08:24:15.841Z,52
2018-09-10T08:25:19.377Z,51
2018-09-10T08:26:22.674Z,51
2018-09-10T08:27:26.479Z,50
2018-09-10T08:28:29.303Z,49
2018-09-10T08:29:31.748Z,49
2018-09-10T08:30:34.948Z,49
2018-09-10T08:31:38.174Z,49
2018-09-10T08:32:41.380Z,49
2018-09-10T08:33:45.079Z,52
2018-09-10T08:34:47.476Z,52
2018-09-10T08:35:50.097Z,53
2018-09-10T08:36:52.756Z,53
2018-09-10T08:37:55.334Z,51
2018-09-10T08:38:57.515Z,49
2018-09-10T08:40:01.089Z,47
2018-09-10T08:41:04.456Z,46
2018-09-10T08:42:07.694Z,46
2018-09-10T08:43:11.302Z,45
2018-09-10T08:44:15.221Z,42
2018-09-10T08:45:19.114Z,38
2018-09-10T08:46:22.959Z,35
2018-09-10T08:47:27.271Z,34
2018-09-10T08:48:31.043Z,33
2018-09-10T08:49:34.281Z,34
2018-09-10T08:50:37.109Z,35
2018-09-10T08:51:39.304Z,36
2018-09-10T08:52:42.887Z,37
2018-09-10T08:53:46.570Z,37
2018-09-10T08:54:49.276Z,36
2018-09-10T08:55:54.151Z,36
2018-09-10T08:56:57.788Z,35
2018-09-10T08:58:01.233Z,35
2018-09-10T08:59:04.837Z,36
2018-09-10T09:00:09.385Z,35
2018-09-10T09:01:13.123Z,32
2018-09-10T09:02:16.114Z,28
2018-09-10T09:03:20.293Z,26
2018-09-10T09:04:23.841Z,24
2018-09-10T09:05:26.314Z,22
2018-09-10T09:06:30.048Z,21
2018-09-10T09:07:32.124Z,22
2018-09-10T09:08:34.415Z,23
2018-09-10T09:09:38.087Z,24
2018-09-10T09:10:41.961Z,25
2018-09-10T09:11:45.276Z,27
2018-09-10T09:12:48.777Z,29
2018-09-10T09:13:52.285Z,32
2018-09-10T09:14:55.096Z,32
2018-09-10T09:15:58.915Z,30
2018-09-10T09:17:02.583Z,29
2018-09-10T09:18:05.467Z,30
2018-09-10T09:19:07.794Z,31
2018-09-10T09:20:35.546Z,31
2018-09-10T09:21:37.583Z,30
2018-09-10T09:22:39.623Z,28
2018-09-10T09:23:41.801Z,26
2018-09-10T09:24:43.820Z,24
2018-09-10T09:25:47.015Z,21
2018-09-10T09:26:49.092Z,23
2018-09-10T09:27:51.194Z,24
2018-09-10T09:28:53.230Z,24
2018-09-10T09:29:55.354Z,24
2018-09-10T09:30:57.765Z,23
2018-09-10T09:32:00.187Z,21
2018-09-10T09:33:02.232Z,20
2018-09-10T09:34:04.277Z,19
2018-09-10T09:35:06.318Z,19
2018-09-10T09:36:08.882Z,21
2018-09-10T09:37:10.877Z,23
2018-09-10T09:38:12.949Z,24
2018-09-10T09:39:14.979Z,25
2018-09-10T09:40:17.030Z,28
2018-09-10T09:41:19.760Z,32
2018-09-10T09:42:21.796Z,37
2018-09-10T09:43:23.866Z,41
2018-09-10T09:44:26.184Z,46
2018-09-10T09:45:28.532Z,47
2018-09-10T09:46:30.575Z,50
2018-09-10T09:47:32.637Z,54
2018-09-10T09:48:34.667Z,58
2018-09-10T09:49:36.711Z,59
2018-09-10T09:50:39.038Z,56
2018-09-10T09:51:41.082Z,55
2018-09-10T09:52:43.914Z,58
2018-09-10T09:53:45.952Z,64
2018-09-10T09:54:47.994Z,67
2018-09-10T09:55:50.420Z,66
2018-09-10T09:56:52.458Z,63
2018-09-10T09:57:54.526Z,59
2018-09-10T09:58:57.440Z,55
2018-09-10T09:59:59.494Z,51
2018-09-10T10:01:01.535Z,50
2018-09-10T10:02:03.566Z,50
2018-09-10T10:03:05.648Z,50
2018-09-10T10:04:08.131Z,52
2018-09-10T10:05:10.083Z,60
2018-09-10T10:06:12.121Z,73
2018-09-10T10:07:14.161Z,87
2018-09-10T10:08:16.480Z,89
2018-09-10T10:09:18.533Z,95
2018-09-10T10:10:21.144Z,83
2018-09-10T10:11:24.107Z,78
2018-09-10T10:12:26.163Z,90
2018-09-10T10:13:29.473Z,115
2018-09-10T10:14:31.796Z,137
2018-09-10T10:15:33.833Z,103
2018-09-10T10:16:36.286Z,66
2018-09-10T10:17:38.316Z,47
2018-09-10T10:18:40.356Z,36
2018-09-10T10:19:42.392Z,31
2018-09-10T10:20:44.432Z,27
2018-09-10T10:21:46.457Z,24
2018-09-10T10:22:48.499Z,23
2018-09-10T10:23:50.540Z,23
2018-09-10T10:24:52.577Z,26
2018-09-10T10:25:54.627Z,33
2018-09-10T10:26:56.669Z,44
2018-09-10T10:27:58.710Z,58
2018-09-10T10:29:00.760Z,73
2018-09-10T10:30:03.135Z,86
2018-09-10T10:31:05.504Z,97
2018-09-10T10:32:07.544Z,145
2018-09-10T10:33:09.579Z,95
2018-09-10T10:34:11.616Z,83
2018-09-10T10:35:13.659Z,75
2018-09-10T10:36:15.697Z,69
2018-09-10T10:37:17.731Z,65
2018-09-10T10:38:19.786Z,71
2018-09-10T10:39:21.831Z,67
2018-09-10T10:40:23.866Z,65
2018-09-10T10:41:26.189Z,66
2018-09-10T10:42:28.218Z,70
2018-09-10T10:43:30.547Z,69
2018-09-10T10:44:32.588Z,70
2018-09-10T10:45:35.231Z,72
2018-09-10T10:46:37.259Z,73
2018-09-10T10:47:39.310Z,71
2018-09-10T10:48:41.356Z,76
2018-09-10T10:49:43.394Z,87
2018-09-10T10:50:45.834Z,102
2018-09-10T10:51:48.254Z,103
2018-09-10T10:52:50.290Z,106
2018-09-10T10:53:52.806Z,102
2018-09-10T10:54:54.738Z,100
2018-09-10T10:55:56.776Z,98
2018-09-10T10:56:59.199Z,93
2018-09-10T10:58:01.530Z,80
2018-09-10T10:59:03.564Z,76
2018-09-10T11:00:05.608Z,74
2018-09-10T11:01:07.646Z,78
2018-09-10T11:02:09.682Z,85
2018-09-10T11:03:11.728Z,100
2018-09-10T11:04:13.782Z,115
2018-09-10T11:05:16.094Z,148
2018-09-10T11:06:18.143Z,183
2018-09-10T11:07:20.183Z,124
2018-09-10T11:08:22.219Z,127
2018-09-10T11:09:24.258Z,121
2018-09-10T11:10:26.584Z,137
2018-09-10T11:11:29.016Z,184
2018-09-10T11:12:31.054Z,168
2018-09-10T11:13:33.095Z,165
2018-09-10T11:14:35.148Z,266
2018-09-10T11:15:37.471Z,128
2018-09-10T11:16:39.521Z,124
2018-09-10T11:17:41.553Z,115
2018-09-10T11:18:43.600Z,89
2018-09-10T11:19:45.631Z,79
2018-09-10T11:20:47.677Z,81
2018-09-10T11:21:49.719Z,94
2018-09-10T11:22:51.757Z,117
2018-09-10T11:23:53.810Z,237
2018-09-10T11:24:56.134Z,171
2018-09-10T11:25:58.178Z,212
2018-09-10T11:27:00.216Z,133
2018-09-10T11:28:02.561Z,108
2018-09-10T11:29:04.599Z,94
2018-09-10T11:30:06.639Z,84
2018-09-10T11:31:09.356Z,98
2018-09-10T11:32:11.389Z,92
2018-09-10T11:33:13.437Z,101
2018-09-10T11:34:15.475Z,89
2018-09-10T11:35:17.514Z,72
2018-09-10T11:36:19.952Z,75
2018-09-10T11:37:22.289Z,92
2018-09-10T11:38:24.329Z,115
2018-09-10T11:39:26.378Z,130
2018-09-10T11:40:28.463Z,135
2018-09-10T11:41:30.456Z,173
2018-09-10T11:42:32.790Z,249
2018-09-10T11:43:35.123Z,275
2018-09-10T11:44:37.444Z,164
2018-09-10T11:45:39.488Z,158
2018-09-10T11:46:41.989Z,158
2018-09-10T11:47:44.284Z,350
2018-09-10T11:48:46.607Z,207
2018-09-10T11:49:48.650Z,374
2018-09-10T11:50:50.992Z,359
2018-09-10T11:51:53.042Z,290
2018-09-10T11:52:55.076Z,340
2018-09-10T11:53:57.125Z,286
2018-09-10T11:54:59.171Z,234
2018-09-10T11:56:01.213Z,142
2018-09-10T11:57:03.868Z,109
2018-09-10T11:58:05.901Z,83
2018-09-10T11:59:07.945Z,87
2018-09-10T12:00:10.273Z,98
2018-09-10T12:01:12.332Z,144
2018-09-10T12:02:14.374Z,243
2018-09-10T12:03:16.807Z,172
2018-09-10T12:04:18.853Z,280
2018-09-10T12:05:20.887Z,300
2018-09-10T12:06:22.937Z,346
2018-09-10T12:07:24.983Z,265
2018-09-10T12:08:27.879Z,280
2018-09-10T12:09:29.869Z,371
2018-09-10T12:10:32.206Z,342
2018-09-10T12:11:34.635Z,350
2018-09-10T12:12:36.687Z,303
2018-09-10T12:13:38.753Z,214
2018-09-10T12:14:40.776Z,295
2018-09-10T12:15:42.818Z,296
2018-09-10T12:16:44.911Z,176
2018-09-10T12:17:46.906Z,144
2018-09-10T12:18:49.340Z,149
2018-09-10T12:19:51.386Z,157
2018-09-10T12:20:53.437Z,197
2018-09-10T12:21:55.798Z,234
2018-09-10T12:22:57.846Z,176
2018-09-10T12:23:59.892Z,178
2018-09-10T12:25:01.935Z,197
2018-09-10T12:26:03.982Z,271
2018-09-10T12:27:06.034Z,233
2018-09-10T12:28:08.086Z,299
2018-09-10T12:29:10.140Z,253
2018-09-10T12:30:12.203Z,252
2018-09-10T12:31:14.547Z,249
2018-09-10T12:32:17.338Z,272
2018-09-10T12:33:19.373Z,269
2018-09-10T12:34:21.434Z,276
2018-09-10T12:35:23.756Z,307
2018-09-10T12:36:26.095Z,261
2018-09-10T12:37:28.143Z,259
2018-09-10T12:38:30.183Z,228
2018-09-10T12:39:32.564Z,252
2018-09-10T12:40:34.577Z,272
2018-09-10T12:41:36.625Z,308
2018-09-10T12:42:38.671Z,269
2018-09-10T12:43:40.721Z,266
2018-09-10T12:44:42.767Z,178
2018-09-10T12:45:44.814Z,157
2018-09-10T12:46:46.874Z,161
2018-09-10T12:47:49.205Z,232
2018-09-10T12:48:51.633Z,99
2018-09-10T12:49:53.693Z,94
2018-09-10T12:50:56.116Z,100
2018-09-10T12:51:58.161Z,115
2018-09-10T12:53:00.491Z,89
2018-09-10T12:54:02.532Z,145
2018-09-10T12:55:04.592Z,140
2018-09-10T12:56:06.642Z,103
2018-09-10T12:57:08.689Z,91
2018-09-10T12:58:11.012Z,84
2018-09-10T12:59:13.071Z,81
2018-09-10T13:00:15.107Z,72
2018-09-10T13:01:17.538Z,59
2018-09-10T13:02:19.596Z,53
2018-09-10T13:03:21.640Z,60
2018-09-10T13:04:24.075Z,64
2018-09-10T13:05:26.121Z,58
2018-09-10T13:06:28.167Z,56
2018-09-10T13:07:30.589Z,62
2018-09-10T13:08:32.640Z,64
2018-09-10T13:09:34.686Z,62
2018-09-10T13:10:37.102Z,60
2018-09-10T13:11:39.418Z,60
2018-09-10T13:12:41.457Z,65
2018-09-10T13:13:43.503Z,71
2018-09-10T13:14:45.565Z,78
2018-09-10T13:15:47.611Z,89
2018-09-10T13:16:49.653Z,108
2018-09-10T13:17:51.698Z,130
2018-09-10T13:18:53.743Z,118
2018-09-10T13:19:55.787Z,124
2018-09-10T13:20:58.132Z,144
2018-09-10T13:22:00.177Z,157
2018-09-10T13:23:02.220Z,159
2018-09-10T13:24:04.272Z,155
2018-09-10T13:25:06.315Z,145
2018-09-10T13:26:08.358Z,143
2018-09-10T13:27:10.412Z,133
2018-09-10T13:28:12.448Z,128
2018-09-10T13:29:14.496Z,125
2018-09-10T13:30:16.833Z,120
2018-09-10T13:31:18.886Z,120
2018-09-10T13:32:20.927Z,110
2018-09-10T13:33:22.980Z,101
2018-09-10T13:34:25.030Z,97
2018-09-10T13:35:27.150Z,95
2018-09-10T13:36:29.571Z,96
2018-09-10T13:37:32.218Z,96
2018-09-10T13:38:34.371Z,99
2018-09-10T13:39:36.419Z,99
2018-09-10T13:40:38.499Z,102
2018-09-10T13:41:40.826Z,104
2018-09-10T13:42:42.889Z,105
2018-09-10T13:43:44.963Z,101
2018-09-10T13:44:47.021Z,94
2018-09-10T13:45:49.103Z,88
2018-09-10T13:46:51.556Z,82
2018-09-10T13:47:53.964Z,78
2018-09-10T13:48:56.012Z,80
2018-09-10T13:49:58.865Z,75
2018-09-10T13:51:00.968Z,71
2018-09-10T13:52:03.405Z,68
2018-09-10T13:53:05.606Z,66
2018-09-10T13:54:07.733Z,62
2018-09-10T13:55:10.083Z,59
2018-09-10T13:56:12.124Z,57
2018-09-10T13:57:14.769Z,57
2018-09-10T13:58:17.100Z,52
2018-09-10T13:59:19.149Z,47
2018-09-10T14:00:21.203Z,41
2018-09-10T14:01:23.307Z,37
2018-09-10T14:02:25.677Z,36
2018-09-10T14:03:27.727Z,35
2018-09-10T14:04:29.776Z,37
2018-09-10T14:05:31.814Z,41
2018-09-10T14:06:33.864Z,49
2018-09-10T14:07:35.912Z,54
2018-09-10T14:08:37.955Z,55
2018-09-10T14:09:40.012Z,56
2018-09-10T14:10:42.107Z,55
2018-09-10T14:11:44.103Z,58
2018-09-10T14:12:46.146Z,66
2018-09-10T14:13:48.206Z,67
2018-09-10T14:14:50.247Z,71
2018-09-10T14:15:52.294Z,69
2018-09-10T14:16:54.339Z,70
2018-09-10T14:17:56.375Z,67
2018-09-10T14:18:58.419Z,63
2018-09-10T14:20:00.743Z,58
2018-09-10T14:21:02.791Z,55
2018-09-10T14:22:04.840Z,55
2018-09-10T14:23:06.881Z,57
2018-09-10T14:24:08.929Z,61
2018-09-10T14:25:10.966Z,65
2018-09-10T14:26:13.014Z,67
2018-09-10T14:27:15.482Z,68
2018-09-10T14:28:17.784Z,65
2018-09-10T14:29:20.212Z,64
2018-09-10T14:30:22.570Z,62
2018-09-10T14:31:24.619Z,60
2018-09-10T14:32:26.980Z,59
2018-09-10T14:33:29.028Z,59
2018-09-10T14:34:31.065Z,59
2018-09-10T14:35:33.105Z,59
2018-09-10T14:36:35.154Z,59
2018-09-10T14:37:37.208Z,59
2018-09-10T14:38:39.247Z,56
2018-09-10T14:39:41.597Z,55
2018-09-10T14:40:43.641Z,54
2018-09-10T14:41:45.683Z,54
2018-09-10T14:42:48.531Z,54
2018-09-10T14:43:50.560Z,53
2018-09-10T14:44:52.607Z,52
2018-09-10T14:45:54.655Z,50
2018-09-10T14:46:56.707Z,49
2018-09-10T14:47:58.795Z,48
2018-09-10T14:49:00.837Z,46
2018-09-10T14:50:02.892Z,45
2018-09-10T14:51:04.923Z,44
2018-09-10T14:52:06.974Z,45
2018-09-10T14:53:09.025Z,45
2018-09-10T14:54:11.070Z,44
2018-09-10T14:55:13.114Z,43
2018-09-10T14:56:15.454Z,42
2018-09-10T14:57:17.496Z,42
2018-09-10T14:58:19.596Z,45
2018-09-10T14:59:21.596Z,49
2018-09-10T15:00:23.641Z,51